Time;durP1;ratioP1;P1;durP2;ratioP2;P2;SDS_P1;SDS_P2;PMS_P1;PMS_P2;Temp;Humidity;BMP_temperature;BMP_pressure;BME280_temperature;BME280_humidity;BME280_pressure;Samples;Min_cycle;Max_cycle;Signal;HPM_P1;HPM_P2
2021/12/13 00:00:49;;;;;;;41.00;14.10;;;;;;;;;;5016019;28;20026;-89
2021/12/13 00:03:26;;;;;;;39.03;14.80;;;;;;;;;;5018128;28;20018;-89
2021/12/13 00:06:01;;;;;;;35.30;13.52;;;;;;;;;;5015049;28;20125;-89
2021/12/13 00:08:29;;;;;;;40.15;14.27;;;;;;;;;;5002687;28;20033;-89
2021/12/13 00:10:59;;;;;;;41.25;12.40;;;;;;;;;;5024597;28;20029;-88
2021/12/13 00:13:29;;;;;;;37.10;13.18;;;;;;;;;;5017359;28;20478;-88
2021/12/13 00:16:01;;;;;;;35.50;13.07;;;;;;;;;;5010880;28;20022;-89
2021/12/13 00:18:29;;;;;;;33.22;12.75;;;;;;;;;;5021079;28;20010;-89
2021/12/13 00:20:59;;;;;;;42.08;13.70;;;;;;;;;;4998187;28;20033;-90
2021/12/13 00:23:28;;;;;;;47.00;14.30;;;;;;;;;;5013977;28;20129;-92
2021/12/13 00:25:56;;;;;;;35.72;14.75;;;;;;;;;;5001730;28;20014;-89
2021/12/13 00:28:25;;;;;;;40.00;14.00;;;;;;;;;;5000547;28;20049;-89
2021/12/13 00:31:01;;;;;;;39.38;13.57;;;;;;;;;;5017517;28;20030;-89
2021/12/13 00:33:54;;;;;;;39.85;14.25;;;;;;;;;;5002623;28;20033;-88
2021/12/13 00:36:30;;;;;;;49.95;14.23;;;;;;;;;;4992461;28;20469;-90
2021/12/13 00:39:04;;;;;;;33.60;13.93;;;;;;;;;;5013747;28;20028;-88
2021/12/13 00:41:30;;;;;;;38.55;16.15;;;;;;;;;;5014347;28;20022;-87
2021/12/13 00:44:17;;;;;;;41.17;13.30;;;;;;;;;;5015417;28;20437;-87
2021/12/13 00:46:44;;;;;;;35.03;14.02;;;;;;;;;;5014138;28;20025;-88
2021/12/13 00:49:12;;;;;;;48.55;15.63;;;;;;;;;;5015252;28;20029;-90
2021/12/13 00:51:47;;;;;;;37.55;14.95;;;;;;;;;;5014710;28;20488;-88
2021/12/13 00:54:17;;;;;;;41.25;14.88;;;;;;;;;;5013173;28;20026;-88
2021/12/13 00:56:44;;;;;;;44.85;15.25;;;;;;;;;;4667528;28;9999781;-86
2021/12/13 00:59:11;;;;;;;42.28;14.13;;;;;;;;;;5013960;28;20053;-86
2021/12/13 01:01:38;;;;;;;38.60;13.88;;;;;;;;;;5009983;28;20029;-87
2021/12/13 01:04:07;;;;;;;42.75;15.73;;;;;;;;;;5013344;28;20022;-86
2021/12/13 01:06:45;;;;;;;48.22;14.32;;;;;;;;;;5013168;28;20028;-87
2021/12/13 01:09:15;;;;;;;50.63;15.20;;;;;;;;;;5013523;28;20022;-87
2021/12/13 01:11:44;;;;;;;42.10;13.85;;;;;;;;;;5013732;28;20023;-88
2021/12/13 01:14:14;;;;;;;44.67;13.82;;;;;;;;;;5025919;28;20028;-88
2021/12/13 01:16:55;;;;;;;33.45;13.65;;;;;;;;;;5010057;28;20070;-90
2021/12/13 01:19:28;;;;;;;52.45;13.27;;;;;;;;;;5015355;28;20711;-88
2021/12/13 01:22:01;;;;;;;38.00;12.93;;;;;;;;;;4996709;28;20026;-88
2021/12/13 01:25:03;;;;;;;40.53;11.93;;;;;;;;;;5011980;28;20022;-89
2021/12/13 01:27:30;;;;;;;45.55;12.30;;;;;;;;;;4994911;28;20058;-89
2021/12/13 01:29:56;;;;;;;37.22;12.93;;;;;;;;;;5009688;28;20030;-88
2021/12/13 01:32:24;;;;;;;41.67;13.48;;;;;;;;;;5012368;28;20495;-89
2021/12/13 01:34:51;;;;;;;34.78;12.13;;;;;;;;;;5014224;28;20030;-88
2021/12/13 01:37:17;;;;;;;41.25;11.57;;;;;;;;;;5013026;28;20022;-89
2021/12/13 01:39:45;;;;;;;39.75;11.25;;;;;;;;;;5013425;28;20026;-88
2021/12/13 01:42:17;;;;;;;43.55;13.20;;;;;;;;;;5012882;28;20033;-86
2021/12/13 01:44:46;;;;;;;31.42;12.05;;;;;;;;;;5014511;28;20037;-86
2021/12/13 01:47:14;;;;;;;50.17;12.20;;;;;;;;;;5012700;28;20018;-86
2021/12/13 01:49:44;;;;;;;38.00;13.13;;;;;;;;;;5012829;28;20183;-89
2021/12/13 01:52:20;;;;;;;38.50;14.23;;;;;;;;;;5011737;28;20495;-86
2021/12/13 01:54:46;;;;;;;41.42;14.40;;;;;;;;;;4664254;28;10000442;-88
2021/12/13 01:59:52;;;;;;;43.80;14.20;;;;;;;;;;5014190;28;20026;-88
2021/12/13 02:02:27;;;;;;;42.70;15.27;;;;;;;;;;5012815;28;20034;-88
2021/12/13 02:04:59;;;;;;;44.50;15.15;;;;;;;;;;5013480;28;20471;-89
2021/12/13 02:07:27;;;;;;;48.28;15.40;;;;;;;;;;5013509;28;20498;-88
2021/12/13 02:09:56;;;;;;;37.67;15.35;;;;;;;;;;5013215;28;20104;-88
2021/12/13 02:12:28;;;;;;;39.50;14.15;;;;;;;;;;5012832;28;20476;-88
2021/12/13 02:17:43;;;;;;;51.55;16.63;;;;;;;;;;5014619;28;20032;-88
2021/12/13 02:20:16;;;;;;;47.50;16.75;;;;;;;;;;5012863;28;20396;-88
2021/12/13 02:22:49;;;;;;;50.65;18.88;;;;;;;;;;5013287;28;20024;-88
2021/12/13 02:25:33;;;;;;;51.67;18.95;;;;;;;;;;5013351;28;20025;-88
2021/12/13 02:28:20;;;;;;;54.22;19.60;;;;;;;;;;5012894;28;20022;-88
2021/12/13 02:30:49;;;;;;;52.67;18.38;;;;;;;;;;5013503;28;20018;-90
2021/12/13 02:33:21;;;;;;;54.53;19.20;;;;;;;;;;5012954;28;20026;-89
2021/12/13 02:35:50;;;;;;;64.95;19.85;;;;;;;;;;5012629;28;20018;-87
2021/12/13 02:38:17;;;;;;;52.53;19.83;;;;;;;;;;5013109;28;20014;-87
2021/12/13 02:40:44;;;;;;;63.38;22.30;;;;;;;;;;5013871;28;20026;-86
2021/12/13 02:43:12;;;;;;;58.55;20.73;;;;;;;;;;5013209;28;20025;-86
2021/12/13 02:45:44;;;;;;;58.35;21.20;;;;;;;;;;5013156;28;20022;-87
2021/12/13 02:48:19;;;;;;;55.60;20.92;;;;;;;;;;5012999;28;20022;-85
2021/12/13 02:51:04;;;;;;;58.05;22.05;;;;;;;;;;5012994;28;20029;-88
2021/12/13 02:53:51;;;;;;;60.03;22.85;;;;;;;;;;5013039;28;20030;-86
2021/12/13 02:56:22;;;;;;;48.38;20.40;;;;;;;;;;5013147;28;20030;-87
2021/12/13 02:58:49;;;;;;;61.92;22.98;;;;;;;;;;5014252;28;20025;-86
2021/12/13 03:01:19;;;;;;;58.45;21.92;;;;;;;;;;5012826;28;20364;-88
2021/12/13 03:03:48;;;;;;;55.72;20.23;;;;;;;;;;5013911;28;20152;-88
2021/12/13 03:06:18;;;;;;;59.85;22.27;;;;;;;;;;5013061;28;20079;-87
2021/12/13 03:08:46;;;;;;;58.67;21.63;;;;;;;;;;5012806;28;20033;-87
2021/12/13 03:11:22;;;;;;;65.43;23.00;;;;;;;;;;5012926;28;20334;-87
2021/12/13 03:13:52;;;;;;;63.13;21.77;;;;;;;;;;5012544;28;20049;-90
2021/12/13 03:16:21;;;;;;;54.38;20.65;;;;;;;;;;4993076;28;20409;-86
2021/12/13 03:18:56;;;;;;;56.85;19.98;;;;;;;;;;4994372;28;20520;-86
2021/12/13 03:21:35;;;;;;;60.63;22.23;;;;;;;;;;4993190;28;20018;-86
2021/12/13 03:24:16;;;;;;;58.70;21.10;;;;;;;;;;4993217;28;20027;-86
2021/12/13 03:27:09;;;;;;;55.35;21.23;;;;;;;;;;5003841;28;20026;-85
2021/12/13 03:29:47;;;;;;;52.42;18.98;;;;;;;;;;5010275;28;20041;-85
2021/12/13 03:32:15;;;;;;;50.90;20.50;;;;;;;;;;5012043;28;20022;-87
2021/12/13 03:34:45;;;;;;;55.08;20.95;;;;;;;;;;5015935;28;20164;-87
2021/12/13 03:37:17;;;;;;;55.25;21.00;;;;;;;;;;5015686;28;20460;-86
2021/12/13 03:40:02;;;;;;;48.10;19.65;;;;;;;;;;5017125;28;20021;-85
2021/12/13 03:42:52;;;;;;;58.22;21.88;;;;;;;;;;5009822;28;20030;-86
2021/12/13 03:45:30;;;;;;;63.45;23.58;;;;;;;;;;5015843;28;20168;-86
2021/12/13 03:47:57;;;;;;;55.80;21.63;;;;;;;;;;5015544;28;20018;-85
2021/12/13 03:50:27;;;;;;;62.33;22.10;;;;;;;;;;5010734;28;20022;-86
2021/12/13 03:52:55;;;;;;;69.35;24.98;;;;;;;;;;5017038;28;20464;-86
2021/12/13 03:55:23;;;;;;;54.53;22.02;;;;;;;;;;5017776;28;20030;-86
2021/12/13 03:57:51;;;;;;;55.08;21.88;;;;;;;;;;5014113;28;20021;-87
2021/12/13 04:00:20;;;;;;;65.18;24.42;;;;;;;;;;5011632;28;20026;-86
2021/12/13 04:02:47;;;;;;;77.28;30.27;;;;;;;;;;4998631;28;20465;-87
2021/12/13 04:05:15;;;;;;;93.45;36.00;;;;;;;;;;5001953;28;20088;-86
2021/12/13 04:07:43;;;;;;;95.90;42.53;;;;;;;;;;5013590;28;20025;-86
2021/12/13 04:10:13;;;;;;;111.68;45.55;;;;;;;;;;5020245;28;20098;-87
2021/12/13 04:12:46;;;;;;;103.05;47.67;;;;;;;;;;5015880;28;20435;-86
2021/12/13 04:15:31;;;;;;;117.18;48.33;;;;;;;;;;5016098;28;20583;-87
2021/12/13 04:18:12;;;;;;;129.25;54.42;;;;;;;;;;5015318;28;20049;-86
2021/12/13 04:20:39;;;;;;;120.13;52.42;;;;;;;;;;5010170;28;20026;-88
2021/12/13 04:23:19;;;;;;;137.57;55.08;;;;;;;;;;5014936;28;20028;-88
2021/12/13 04:25:47;;;;;;;123.50;49.47;;;;;;;;;;5014876;28;20052;-92
2021/12/13 04:28:23;;;;;;;120.70;49.58;;;;;;;;;;5015769;28;20173;-87
2021/12/13 04:30:52;;;;;;;109.45;43.83;;;;;;;;;;5016262;28;20022;-86
2021/12/13 04:33:27;;;;;;;102.72;43.35;;;;;;;;;;5014867;28;20025;-86
2021/12/13 04:35:55;;;;;;;114.10;44.17;;;;;;;;;;5014945;28;20080;-86
2021/12/13 04:38:25;;;;;;;107.28;42.88;;;;;;;;;;5016194;28;20041;-86
2021/12/13 04:40:52;;;;;;;100.10;44.72;;;;;;;;;;5016165;28;20016;-86
2021/12/13 04:43:21;;;;;;;103.88;43.78;;;;;;;;;;5014433;28;20025;-87
2021/12/13 04:45:50;;;;;;;104.63;45.47;;;;;;;;;;5015762;28;20468;-86
2021/12/13 04:48:18;;;;;;;118.30;43.88;;;;;;;;;;5014793;28;20017;-87
2021/12/13 04:50:58;;;;;;;113.00;45.38;;;;;;;;;;5014693;28;20117;-87
2021/12/13 04:53:24;;;;;;;116.40;49.47;;;;;;;;;;5015718;28;20025;-86
2021/12/13 04:55:52;;;;;;;116.88;47.70;;;;;;;;;;5014337;28;20029;-87
2021/12/13 04:58:19;;;;;;;121.53;49.17;;;;;;;;;;5014088;28;20033;-86
2021/12/13 05:00:50;;;;;;;112.88;45.55;;;;;;;;;;5011180;28;20030;-86
2021/12/13 05:03:18;;;;;;;117.60;50.45;;;;;;;;;;5011137;28;20062;-86
2021/12/13 05:05:45;;;;;;;113.80;46.35;;;;;;;;;;5010920;28;20515;-86
2021/12/13 05:08:14;;;;;;;117.60;47.70;;;;;;;;;;5009574;28;20022;-86
2021/12/13 05:10:43;;;;;;;123.43;45.30;;;;;;;;;;5015120;28;20022;-87
2021/12/13 05:13:10;;;;;;;107.53;42.72;;;;;;;;;;5013962;28;20056;-87
2021/12/13 05:15:39;;;;;;;114.35;43.60;;;;;;;;;;5013934;28;20018;-86
2021/12/13 05:18:07;;;;;;;116.72;42.30;;;;;;;;;;5013972;28;20018;-86
2021/12/13 05:20:37;;;;;;;114.15;43.53;;;;;;;;;;5013601;28;20029;-86
2021/12/13 05:23:08;;;;;;;91.45;38.10;;;;;;;;;;5013703;28;20022;-86
2021/12/13 05:25:37;;;;;;;99.90;39.22;;;;;;;;;;5014143;28;20025;-86
2021/12/13 05:28:17;;;;;;;100.95;35.33;;;;;;;;;;5014057;28;20088;-87
2021/12/13 05:30:57;;;;;;;74.95;30.83;;;;;;;;;;5014103;28;20022;-87
2021/12/13 05:33:25;;;;;;;86.78;30.27;;;;;;;;;;5014089;28;20015;-87
2021/12/13 05:35:53;;;;;;;86.07;30.70;;;;;;;;;;5014644;28;20026;-88
2021/12/13 05:38:28;;;;;;;91.20;33.55;;;;;;;;;;5015673;28;20057;-87
2021/12/13 05:40:55;;;;;;;69.97;28.88;;;;;;;;;;5014457;28;20361;-88
2021/12/13 05:43:27;;;;;;;72.88;31.10;;;;;;;;;;5013790;28;20046;-86
2021/12/13 05:46:05;;;;;;;67.53;28.90;;;;;;;;;;5013940;28;20024;-88
2021/12/13 05:48:34;;;;;;;72.85;30.33;;;;;;;;;;5017217;28;20022;-88
2021/12/13 05:51:01;;;;;;;85.15;32.13;;;;;;;;;;5013762;28;20025;-87
2021/12/13 05:53:30;;;;;;;94.35;35.63;;;;;;;;;;5013518;28;20017;-87
2021/12/13 05:55:56;;;;;;;78.15;31.88;;;;;;;;;;5012593;28;20476;-87
2021/12/13 05:58:36;;;;;;;78.38;34.20;;;;;;;;;;5010558;28;20030;-87
2021/12/13 06:01:04;;;;;;;85.55;31.95;;;;;;;;;;4995109;28;20105;-87
2021/12/13 06:03:33;;;;;;;78.18;31.80;;;;;;;;;;4993682;28;20030;-88
2021/12/13 06:06:06;;;;;;;85.43;33.60;;;;;;;;;;4998986;28;20017;-87
2021/12/13 06:08:35;;;;;;;77.70;33.60;;;;;;;;;;5013653;28;20018;-87
2021/12/13 06:11:04;;;;;;;91.47;33.30;;;;;;;;;;5013558;28;20642;-88
2021/12/13 06:13:37;;;;;;;86.95;34.10;;;;;;;;;;5013195;28;20046;-87
2021/12/13 06:16:05;;;;;;;83.72;33.72;;;;;;;;;;5013062;28;20065;-88
2021/12/13 06:18:36;;;;;;;87.32;33.00;;;;;;;;;;5012870;28;20026;-87
2021/12/13 06:21:02;;;;;;;71.50;31.48;;;;;;;;;;5014641;28;20508;-88
2021/12/13 06:23:34;;;;;;;69.47;29.45;;;;;;;;;;5013491;28;20026;-88
2021/12/13 06:26:08;;;;;;;43.75;20.38;;;;;;;;;;5013347;28;20076;-88
2021/12/13 06:28:35;;;;;;;38.90;15.95;;;;;;;;;;5013430;28;20041;-88
2021/12/13 06:31:16;;;;;;;41.90;17.48;;;;;;;;;;5013345;28;20116;-87
2021/12/13 06:33:54;;;;;;;39.53;16.65;;;;;;;;;;5014447;28;20097;-88
2021/12/13 06:36:35;;;;;;;37.17;18.58;;;;;;;;;;5013309;28;20148;-88
2021/12/13 06:39:07;;;;;;;43.85;16.63;;;;;;;;;;5014587;28;20052;-88
2021/12/13 06:41:42;;;;;;;33.80;14.70;;;;;;;;;;5013342;28;20318;-88
2021/12/13 06:44:16;;;;;;;40.30;14.07;;;;;;;;;;5012891;28;20457;-87
2021/12/13 06:47:06;;;;;;;31.95;14.60;;;;;;;;;;5013312;28;20029;-88
2021/12/13 06:49:48;;;;;;;35.90;16.00;;;;;;;;;;5008144;28;20030;-88
2021/12/13 06:52:14;;;;;;;35.22;18.20;;;;;;;;;;5013013;28;20026;-88
2021/12/13 06:54:49;;;;;;;43.08;17.88;;;;;;;;;;5013145;28;20029;-89
2021/12/13 06:57:23;;;;;;;38.60;17.30;;;;;;;;;;5013068;28;20022;-88
2021/12/13 06:59:55;;;;;;;41.83;19.98;;;;;;;;;;5012602;28;20491;-87
2021/12/13 07:02:26;;;;;;;48.15;20.35;;;;;;;;;;5013193;28;20029;-88
2021/12/13 07:04:55;;;;;;;40.30;18.95;;;;;;;;;;5012798;28;20076;-87
2021/12/13 07:07:26;;;;;;;42.35;17.92;;;;;;;;;;5014559;28;20017;-88
2021/12/13 07:09:59;;;;;;;42.22;18.92;;;;;;;;;;4997055;28;20029;-87
2021/12/13 07:12:26;;;;;;;46.08;20.30;;;;;;;;;;4996907;28;20464;-87
2021/12/13 07:14:53;;;;;;;35.90;17.60;;;;;;;;;;5017861;28;20037;-87
2021/12/13 07:17:27;;;;;;;40.88;19.40;;;;;;;;;;5016639;28;20017;-87
2021/12/13 07:19:54;;;;;;;39.58;20.10;;;;;;;;;;5016570;28;20072;-87
2021/12/13 07:22:23;;;;;;;46.25;19.80;;;;;;;;;;5016729;28;20025;-88
2021/12/13 07:24:52;;;;;;;41.65;19.77;;;;;;;;;;5017615;28;20104;-87
2021/12/13 07:27:30;;;;;;;50.80;21.90;;;;;;;;;;5017443;28;20092;-88
2021/12/13 07:29:56;;;;;;;46.22;19.50;;;;;;;;;;5016141;28;20421;-87
2021/12/13 07:32:25;;;;;;;47.22;20.58;;;;;;;;;;5016041;28;20518;-88
2021/12/13 07:34:52;;;;;;;53.75;22.25;;;;;;;;;;5017395;28;20026;-87
2021/12/13 07:37:19;;;;;;;52.53;22.40;;;;;;;;;;5016131;28;20080;-86
2021/12/13 07:39:45;;;;;;;58.92;23.25;;;;;;;;;;5016158;28;20091;-87
2021/12/13 07:42:13;;;;;;;50.33;23.90;;;;;;;;;;5015064;28;20017;-88
2021/12/13 07:44:44;;;;;;;57.22;24.63;;;;;;;;;;5016050;28;20026;-88
2021/12/13 07:47:22;;;;;;;54.88;25.33;;;;;;;;;;5015816;28;20477;-87
2021/12/13 07:49:50;;;;;;;56.20;24.83;;;;;;;;;;5015854;28;20018;-88
2021/12/13 07:52:24;;;;;;;54.25;26.13;;;;;;;;;;5016722;28;20017;-88
2021/12/13 07:54:50;;;;;;;59.70;29.73;;;;;;;;;;5015716;28;20049;-89
2021/12/13 07:57:22;;;;;;;77.38;35.00;;;;;;;;;;5015963;28;20022;-88
2021/12/13 07:59:49;;;;;;;81.00;38.28;;;;;;;;;;5033758;28;20486;-88
2021/12/13 08:02:22;;;;;;;85.50;37.42;;;;;;;;;;5027062;28;20029;-87
2021/12/13 08:04:54;;;;;;;82.47;37.67;;;;;;;;;;5015704;28;20116;-88
2021/12/13 08:07:26;;;;;;;81.78;36.72;;;;;;;;;;5022039;28;20053;-87
2021/12/13 08:09:52;;;;;;;84.00;36.72;;;;;;;;;;5015407;28;20018;-87
2021/12/13 08:12:21;;;;;;;78.40;35.88;;;;;;;;;;5026827;28;20045;-87
2021/12/13 08:14:49;;;;;;;86.00;37.42;;;;;;;;;;5018443;28;20029;-87
2021/12/13 08:17:25;;;;;;;76.60;35.00;;;;;;;;;;5015134;28;20121;-86
2021/12/13 08:19:54;;;;;;;73.82;33.08;;;;;;;;;;5007893;28;20350;-87
2021/12/13 08:22:20;;;;;;;68.28;31.50;;;;;;;;;;5015069;28;20022;-87
2021/12/13 08:24:48;;;;;;;62.63;30.90;;;;;;;;;;5015120;28;20025;-86
2021/12/13 08:27:17;;;;;;;69.78;31.88;;;;;;;;;;5016222;28;20469;-87
2021/12/13 08:29:47;;;;;;;67.88;30.30;;;;;;;;;;5016164;28;20013;-89
2021/12/13 08:32:25;;;;;;;65.15;30.00;;;;;;;;;;5019031;28;20021;-87
2021/12/13 08:34:55;;;;;;;64.78;27.85;;;;;;;;;;5009616;28;20030;-87
2021/12/13 08:37:29;;;;;;;63.10;27.52;;;;;;;;;;5015972;28;20059;-88
2021/12/13 08:40:02;;;;;;;61.17;30.17;;;;;;;;;;5031556;28;20018;-87
2021/12/13 08:42:31;;;;;;;63.42;29.25;;;;;;;;;;5015992;28;20408;-88
2021/12/13 08:45:12;;;;;;;73.68;30.55;;;;;;;;;;5011165;28;20479;-87
2021/12/13 08:47:45;;;;;;;65.57;32.85;;;;;;;;;;5013210;28;20022;-90
2021/12/13 08:50:38;;;;;;;75.78;35.03;;;;;;;;;;5016344;28;20026;-89
2021/12/13 08:53:07;;;;;;;77.53;34.53;;;;;;;;;;5007070;28;20593;-88
2021/12/13 08:55:38;;;;;;;84.18;31.65;;;;;;;;;;5011216;28;20032;-88
2021/12/13 08:58:09;;;;;;;69.75;30.20;;;;;;;;;;5008135;28;20104;-88
2021/12/13 09:00:41;;;;;;;73.05;33.70;;;;;;;;;;5010923;28;20013;-89
2021/12/13 09:03:11;;;;;;;73.32;32.55;;;;;;;;;;5025303;28;20363;-87
2021/12/13 09:05:59;;;;;;;74.75;33.08;;;;;;;;;;5014167;28;20041;-88
2021/12/13 09:08:28;;;;;;;75.07;35.63;;;;;;;;;;5015722;28;20092;-88
2021/12/13 09:11:01;;;;;;;81.88;34.53;;;;;;;;;;5014763;28;20018;-88
2021/12/13 09:13:39;;;;;;;70.95;32.35;;;;;;;;;;5009354;28;20062;-87
2021/12/13 09:16:06;;;;;;;75.72;33.47;;;;;;;;;;5011507;28;20026;-89
2021/12/13 09:18:33;;;;;;;86.85;34.25;;;;;;;;;;5017343;28;20025;-89
2021/12/13 09:21:00;;;;;;;71.32;33.55;;;;;;;;;;5034607;28;20052;-88
2021/12/13 09:23:31;;;;;;;64.30;30.05;;;;;;;;;;5010720;28;20096;-87
2021/12/13 09:26:04;;;;;;;60.30;27.92;;;;;;;;;;5008281;28;20029;-86
2021/12/13 09:28:33;;;;;;;62.08;27.42;;;;;;;;;;5002192;28;20032;-87
2021/12/13 09:31:01;;;;;;;59.25;28.23;;;;;;;;;;5026325;28;20053;-86
2021/12/13 09:33:36;;;;;;;67.00;30.35;;;;;;;;;;5013321;28;20089;-86
2021/12/13 09:36:05;;;;;;;56.97;28.48;;;;;;;;;;5013085;28;20484;-86
2021/12/13 09:38:40;;;;;;;68.60;27.77;;;;;;;;;;5010624;28;20021;-86
2021/12/13 09:41:07;;;;;;;66.57;30.02;;;;;;;;;;5009856;28;20026;-86
2021/12/13 09:43:36;;;;;;;60.90;29.67;;;;;;;;;;5015726;28;20044;-88
2021/12/13 09:46:03;;;;;;;60.35;29.13;;;;;;;;;;5011380;28;20026;-88
2021/12/13 09:48:32;;;;;;;66.72;30.02;;;;;;;;;;5013545;28;20022;-87
2021/12/13 09:51:01;;;;;;;58.85;28.75;;;;;;;;;;5014685;28;20026;-87
2021/12/13 09:53:32;;;;;;;52.08;26.30;;;;;;;;;;5013364;28;20032;-87
2021/12/13 09:55:59;;;;;;;49.42;24.80;;;;;;;;;;5018289;28;20026;-87
2021/12/13 09:58:28;;;;;;;49.30;24.58;;;;;;;;;;5014668;28;20026;-87
2021/12/13 10:01:05;;;;;;;58.15;26.95;;;;;;;;;;5016293;28;20030;-87
2021/12/13 10:03:34;;;;;;;62.45;26.67;;;;;;;;;;5029691;28;20018;-86
2021/12/13 10:06:03;;;;;;;53.97;25.17;;;;;;;;;;5013283;28;20546;-87
2021/12/13 10:08:37;;;;;;;50.28;25.27;;;;;;;;;;5012922;28;20021;-87
2021/12/13 10:11:09;;;;;;;59.30;25.98;;;;;;;;;;5014225;28;20014;-87
2021/12/13 10:13:37;;;;;;;53.03;23.98;;;;;;;;;;5014553;28;20042;-87
2021/12/13 10:16:07;;;;;;;47.83;23.10;;;;;;;;;;5013272;28;20113;-87
2021/12/13 10:18:35;;;;;;;52.70;25.63;;;;;;;;;;5014072;28;20021;-87
2021/12/13 10:21:09;;;;;;;55.58;24.65;;;;;;;;;;5012928;28;20017;-87
2021/12/13 10:23:39;;;;;;;50.10;25.45;;;;;;;;;;5013214;28;20022;-87
2021/12/13 10:26:06;;;;;;;43.97;24.80;;;;;;;;;;5012727;28;20032;-87
2021/12/13 10:28:35;;;;;;;63.50;27.13;;;;;;;;;;5010395;28;20022;-88
2021/12/13 10:31:07;;;;;;;53.38;26.45;;;;;;;;;;5013225;28;20028;-87
2021/12/13 10:33:34;;;;;;;48.67;25.98;;;;;;;;;;5012700;28;20022;-87
2021/12/13 10:36:02;;;;;;;59.42;25.15;;;;;;;;;;5012807;28;20022;-88
2021/12/13 10:38:33;;;;;;;55.60;26.80;;;;;;;;;;5013082;28;20014;-86
2021/12/13 10:41:05;;;;;;;50.65;24.55;;;;;;;;;;5009422;28;20101;-87
2021/12/13 10:43:37;;;;;;;54.63;24.13;;;;;;;;;;5031361;28;20018;-87
2021/12/13 10:46:07;;;;;;;58.10;24.77;;;;;;;;;;5016196;28;20014;-87
2021/12/13 10:48:42;;;;;;;54.85;26.20;;;;;;;;;;5015721;28;20018;-87
2021/12/13 10:51:23;;;;;;;61.50;26.77;;;;;;;;;;5015010;28;20018;-90
2021/12/13 10:53:50;;;;;;;73.97;35.35;;;;;;;;;;5014975;28;20411;-89
2021/12/13 10:56:20;;;;;;;72.35;35.45;;;;;;;;;;5008058;28;20139;-90
2021/12/13 10:58:48;;;;;;;71.25;35.83;;;;;;;;;;5050511;28;20056;-91
2021/12/13 11:01:24;;;;;;;75.38;36.75;;;;;;;;;;5067296;28;20039;-88
2021/12/13 11:03:53;;;;;;;81.38;38.13;;;;;;;;;;5064761;28;20081;-87
2021/12/13 11:06:20;;;;;;;80.53;38.55;;;;;;;;;;5059933;28;20027;-88
2021/12/13 11:08:46;;;;;;;77.43;39.83;;;;;;;;;;5064076;28;20028;-88
2021/12/13 11:11:22;;;;;;;72.55;30.73;;;;;;;;;;5056904;28;20169;-88
2021/12/13 11:13:50;;;;;;;82.53;37.97;;;;;;;;;;5055416;28;20084;-90
2021/12/13 11:16:21;;;;;;;68.63;30.58;;;;;;;;;;5052850;28;20534;-88
2021/12/13 11:18:47;;;;;;;70.95;31.58;;;;;;;;;;5081023;28;20025;-88
2021/12/13 11:21:19;;;;;;;81.93;38.38;;;;;;;;;;5055484;28;20017;-87
2021/12/13 11:23:45;;;;;;;81.32;37.92;;;;;;;;;;5056562;28;20497;-87
2021/12/13 11:26:15;;;;;;;87.20;41.58;;;;;;;;;;5063163;28;20027;-88
2021/12/13 11:28:44;;;;;;;61.95;33.15;;;;;;;;;;5061707;28;20037;-87
2021/12/13 11:31:29;;;;;;;54.38;27.42;;;;;;;;;;5046611;28;20018;-88
2021/12/13 11:34:02;;;;;;;63.80;27.90;;;;;;;;;;5046771;28;20084;-88
2021/12/13 11:36:47;;;;;;;59.10;29.42;;;;;;;;;;5047702;28;20022;-88
2021/12/13 11:39:25;;;;;;;61.45;27.48;;;;;;;;;;5054510;28;20452;-87
2021/12/13 11:42:11;;;;;;;78.12;28.28;;;;;;;;;;4705070;28;10000696;-87
2021/12/13 11:44:39;;;;;;;67.90;30.92;;;;;;;;;;5054227;28;20406;-89
2021/12/13 11:47:35;;;;;;;64.00;31.58;;;;;;;;;;5052561;28;20333;-88
2021/12/13 11:50:15;;;;;;;74.85;31.15;;;;;;;;;;5052180;28;20021;-89
2021/12/13 11:52:44;;;;;;;74.53;33.53;;;;;;;;;;5051832;28;20451;-90
2021/12/13 11:55:11;;;;;;;116.85;46.67;;;;;;;;;;5056584;28;20024;-90
2021/12/13 11:58:00;;;;;;;120.28;53.33;;;;;;;;;;5055328;28;20024;-88
2021/12/13 12:00:27;;;;;;;146.43;59.60;;;;;;;;;;5049161;28;20017;-90
2021/12/13 12:02:59;;;;;;;119.47;50.90;;;;;;;;;;5055500;28;20028;-89
2021/12/13 12:05:41;;;;;;;109.32;53.28;;;;;;;;;;5055241;28;20094;-90
2021/12/13 12:08:31;;;;;;;118.80;52.50;;;;;;;;;;5054646;28;20013;-88
2021/12/13 12:11:07;;;;;;;105.15;45.20;;;;;;;;;;5047051;28;20063;-88
2021/12/13 12:13:50;;;;;;;113.15;46.72;;;;;;;;;;5058700;28;20072;-89
2021/12/13 12:16:16;;;;;;;105.60;42.70;;;;;;;;;;5070416;28;20020;-88
2021/12/13 12:18:43;;;;;;;98.55;42.80;;;;;;;;;;5058122;28;20029;-88
2021/12/13 12:21:35;;;;;;;105.30;44.80;;;;;;;;;;5054987;28;20045;-87
2021/12/13 12:24:05;;;;;;;107.93;41.30;;;;;;;;;;5018934;28;20025;-88
2021/12/13 12:26:32;;;;;;;114.55;47.33;;;;;;;;;;5053063;28;20017;-88
2021/12/13 12:29:02;;;;;;;121.25;50.95;;;;;;;;;;5059579;28;20028;-88
2021/12/13 12:31:33;;;;;;;119.10;50.38;;;;;;;;;;5054254;28;20021;-87
2021/12/13 12:34:00;;;;;;;123.10;50.83;;;;;;;;;;5053621;28;20463;-88
2021/12/13 12:36:39;;;;;;;126.32;53.25;;;;;;;;;;5055264;28;20059;-88
2021/12/13 12:39:05;;;;;;;122.28;53.13;;;;;;;;;;5054069;28;20074;-88
2021/12/13 12:41:50;;;;;;;132.98;55.55;;;;;;;;;;5054136;28;20112;-88
2021/12/13 12:44:22;;;;;;;136.35;57.47;;;;;;;;;;5054095;28;20032;-87
2021/12/13 12:46:49;;;;;;;117.32;52.03;;;;;;;;;;5069487;28;20024;-88
2021/12/13 12:49:16;;;;;;;138.23;59.13;;;;;;;;;;5060584;28;20018;-88
2021/12/13 12:51:43;;;;;;;129.35;55.70;;;;;;;;;;5050872;28;20017;-88
2021/12/13 12:54:11;;;;;;;150.65;64.78;;;;;;;;;;5048711;28;20036;-88
2021/12/13 12:56:47;;;;;;;184.68;75.18;;;;;;;;;;5065202;28;20467;-89
2021/12/13 12:59:16;;;;;;;178.43;76.07;;;;;;;;;;5053443;28;20025;-88
2021/12/13 13:01:45;;;;;;;211.30;84.10;;;;;;;;;;5054902;28;20064;-89
2021/12/13 13:04:12;;;;;;;236.52;93.32;;;;;;;;;;5055182;28;20367;-89
2021/12/13 13:06:49;;;;;;;232.40;91.97;;;;;;;;;;5045635;28;20017;-89
2021/12/13 13:09:15;;;;;;;230.35;96.20;;;;;;;;;;5070752;28;20025;-88
2021/12/13 13:11:45;;;;;;;215.52;90.82;;;;;;;;;;5054813;28;20455;-88
2021/12/13 13:14:11;;;;;;;195.15;83.22;;;;;;;;;;5056103;28;20070;-88
2021/12/13 13:16:58;;;;;;;222.02;91.30;;;;;;;;;;5054411;28;20060;-87
2021/12/13 13:19:33;;;;;;;222.02;90.78;;;;;;;;;;5054742;28;20013;-88
2021/12/13 13:22:01;;;;;;;275.55;125.55;;;;;;;;;;5052995;28;20028;-87
2021/12/13 13:24:28;;;;;;;364.33;158.82;;;;;;;;;;5054342;28;20060;-87
2021/12/13 13:26:54;;;;;;;338.73;144.88;;;;;;;;;;5052520;28;20025;-87
2021/12/13 13:29:21;;;;;;;289.13;123.63;;;;;;;;;;5059130;28;20099;-87
2021/12/13 13:31:52;;;;;;;314.65;134.93;;;;;;;;;;5066017;28;20029;-90
2021/12/13 13:34:26;;;;;;;272.52;122.63;;;;;;;;;;5052490;28;20039;-88
2021/12/13 13:36:57;;;;;;;254.15;112.45;;;;;;;;;;5053581;28;20053;-87
2021/12/13 13:39:26;;;;;;;215.05;88.75;;;;;;;;;;5063079;28;20049;-88
2021/12/13 13:41:56;;;;;;;208.63;87.60;;;;;;;;;;5052479;28;20493;-88
2021/12/13 13:44:24;;;;;;;212.35;84.35;;;;;;;;;;5049623;28;20412;-88
2021/12/13 13:47:02;;;;;;;203.38;81.72;;;;;;;;;;5050936;28;20659;-88
2021/12/13 13:49:28;;;;;;;212.90;84.95;;;;;;;;;;5052124;28;20019;-88
2021/12/13 13:51:54;;;;;;;239.63;97.65;;;;;;;;;;5057271;28;20086;-88
2021/12/13 13:54:21;;;;;;;211.45;90.95;;;;;;;;;;5052243;28;20021;-88
2021/12/13 13:56:48;;;;;;;193.88;84.05;;;;;;;;;;5050302;28;20028;-88
2021/12/13 13:59:16;;;;;;;192.05;81.03;;;;;;;;;;5052571;28;20017;-88
2021/12/13 14:01:51;;;;;;;182.32;81.65;;;;;;;;;;5052854;28;20104;-87
2021/12/13 14:04:21;;;;;;;181.68;75.90;;;;;;;;;;5051286;28;20044;-87
2021/12/13 14:06:49;;;;;;;174.40;70.43;;;;;;;;;;5053146;28;20027;-88
2021/12/13 14:09:42;;;;;;;170.93;71.57;;;;;;;;;;5052716;28;20017;-87
2021/12/13 14:12:14;;;;;;;181.35;72.28;;;;;;;;;;5036624;28;20043;-88
2021/12/13 14:14:42;;;;;;;151.00;64.72;;;;;;;;;;5053295;28;20033;-88
2021/12/13 14:17:08;;;;;;;161.48;66.20;;;;;;;;;;5050600;28;20467;-88
2021/12/13 14:19:40;;;;;;;149.35;60.67;;;;;;;;;;5052561;28;20087;-88
2021/12/13 14:22:07;;;;;;;144.52;57.58;;;;;;;;;;5052742;28;20402;-87
2021/12/13 14:24:36;;;;;;;198.73;81.47;;;;;;;;;;5060644;28;20435;-88
2021/12/13 14:27:13;;;;;;;202.63;84.20;;;;;;;;;;5041723;28;20040;-88
2021/12/13 14:29:39;;;;;;;294.42;128.02;;;;;;;;;;5051562;28;20075;-88
2021/12/13 14:32:08;;;;;;;228.05;100.70;;;;;;;;;;5047043;28;20021;-88
2021/12/13 14:34:35;;;;;;;163.23;73.32;;;;;;;;;;5049664;28;20029;-89
2021/12/13 14:37:02;;;;;;;168.15;67.25;;;;;;;;;;5061620;28;20028;-88
2021/12/13 14:39:30;;;;;;;155.52;62.85;;;;;;;;;;5051781;28;20013;-87
2021/12/13 14:42:03;;;;;;;132.65;52.20;;;;;;;;;;5052261;28;20027;-89
2021/12/13 14:44:31;;;;;;;126.53;51.45;;;;;;;;;;5067267;28;20148;-88